createdAt,value
2019-04-20T00:00:51.506Z,56.74
2019-04-20T00:01:48.648Z,57.31
2019-04-20T00:02:53.429Z,56.45
2019-04-20T00:03:50.168Z,55.87
2019-04-20T00:04:49.434Z,55.21
2019-04-20T00:05:48.991Z,55.11
2019-04-20T00:06:51.653Z,54.91
2019-04-20T00:07:50.094Z,55.40
2019-04-20T00:08:55.624Z,56.26
2019-04-20T00:09:56.628Z,55.58
2019-04-20T00:10:57.070Z,55.68
2019-04-20T00:12:00.078Z,55.01
2019-04-20T00:13:03.897Z,55.11
2019-04-20T00:13:59.359Z,55.58
2019-04-20T00:14:49.938Z,55.49
2019-04-20T00:15:49.266Z,55.78
2019-04-20T00:16:48.857Z,54.82
2019-04-20T00:17:54.229Z,55.11
2019-04-20T00:18:53.931Z,55.68
2019-04-20T00:19:53.823Z,54.63
2019-04-20T00:20:51.419Z,55.40
2019-04-20T00:21:57.751Z,54.63
2019-04-20T00:22:51.963Z,56.16
2019-04-20T00:23:50.160Z,56.26
2019-04-20T00:24:55.678Z,55.58
2019-04-20T00:26:02.283Z,55.68
2019-04-20T00:28:10.957Z,56.07
2019-04-20T00:29:07.113Z,55.85
2019-04-20T00:30:04.010Z,56.61
2019-04-20T00:31:05.562Z,56.42
2019-04-20T00:32:00.598Z,56.13
2019-04-20T00:33:01.082Z,56.42
2019-04-20T00:34:01.871Z,57.09
2019-04-20T00:34:50.664Z,56.81
2019-04-20T00:35:50.329Z,56.32
2019-04-20T00:36:49.768Z,57.28
2019-04-20T00:37:49.166Z,56.99
2019-04-20T00:38:53.608Z,57.19
2019-04-20T00:39:49.197Z,57.09
2019-04-20T00:40:57.662Z,56.81
2019-04-20T00:41:56.066Z,57.48
2019-04-20T00:42:54.838Z,57.38
2019-04-20T00:43:49.269Z,57.09
2019-04-20T00:44:57.621Z,56.90
2019-04-20T00:45:53.701Z,57.28
2019-04-20T00:47:03.154Z,56.99
2019-04-20T00:47:57.316Z,56.32
2019-04-20T00:48:55.893Z,56.99
2019-04-20T00:50:01.286Z,57.48
2019-04-20T00:51:06.919Z,57.57
2019-04-20T00:52:18.869Z,56.81
2019-04-20T00:53:04.670Z,56.13
2019-04-20T00:53:52.306Z,56.71
2019-04-20T00:54:49.523Z,56.99
2019-04-20T00:55:50.733Z,56.99
2019-04-20T00:56:49.825Z,58.05
2019-04-20T00:57:55.368Z,58.34
2019-04-20T00:59:05.512Z,58.91
2019-04-20T01:00:11.156Z,59.68
2019-04-20T01:01:12.824Z,58.81
2019-04-20T01:02:10.822Z,59.48
2019-04-20T01:03:07.922Z,59.58
2019-04-20T01:05:04.537Z,59.65
2019-04-20T01:06:15.227Z,60.32
2019-04-20T01:07:01.394Z,60.61
2019-04-20T01:07:54.709Z,60.41
2019-04-20T01:08:50.822Z,60.13
2019-04-20T01:09:49.918Z,60.22
2019-04-20T01:10:54.162Z,60.89
2019-04-20T01:11:50.106Z,60.70
2019-04-20T01:12:52.028Z,60.89
2019-04-20T01:13:55.372Z,61.08
2019-04-20T01:14:56.873Z,60.32
2019-04-20T01:15:55.338Z,60.70
2019-04-20T01:16:57.950Z,60.38
2019-04-20T01:17:49.756Z,60.51
2019-04-20T01:18:49.767Z,60.13
2019-04-20T01:19:52.720Z,61.15
2019-04-20T01:20:49.796Z,60.99
2019-04-20T01:21:57.899Z,60.48
2019-04-20T01:22:57.222Z,61.54
2019-04-20T01:23:55.188Z,60.38
2019-04-20T01:24:51.603Z,61.91
2019-04-20T01:25:55.807Z,61.05
2019-04-20T01:26:54.907Z,61.72
2019-04-20T01:28:10.433Z,60.86
2019-04-20T01:29:03.937Z,61.15
2019-04-20T01:29:53.245Z,61.63
2019-04-20T01:31:01.310Z,61.54
2019-04-20T01:32:05.756Z,61.25
2019-04-20T01:33:07.790Z,61.15
2019-04-20T01:33:58.486Z,60.96
2019-04-20T01:34:58.574Z,61.05
2019-04-20T01:36:03.556Z,61.15
2019-04-20T01:38:07.038Z,62.77
2019-04-20T01:39:05.667Z,61.63
2019-04-20T01:39:55.006Z,61.05
2019-04-20T01:40:50.565Z,61.05
2019-04-20T01:42:51.182Z,62.11
2019-04-20T01:43:50.246Z,62.40
2019-04-20T01:44:52.357Z,61.72
2019-04-20T01:45:58.677Z,62.01
2019-04-20T01:46:55.235Z,61.72
2019-04-20T01:48:50.598Z,62.20
2019-04-20T01:49:57.488Z,62.11
2019-04-20T01:50:59.633Z,62.68
2019-04-20T01:51:57.491Z,62.20
2019-04-20T01:53:01.572Z,61.34
2019-04-20T01:54:06.622Z,61.54
2019-04-20T01:55:12.711Z,62.11
2019-04-20T01:56:07.229Z,62.20
2019-04-20T01:56:59.242Z,63.13
2019-04-20T01:58:05.067Z,62.55
2019-04-20T01:59:04.541Z,63.03
2019-04-20T01:59:59.697Z,63.13
2019-04-20T02:00:53.036Z,63.51
2019-04-20T02:01:55.631Z,63.70
2019-04-20T02:02:55.471Z,63.70
2019-04-20T02:03:53.527Z,63.60
2019-04-20T02:04:52.547Z,63.60
2019-04-20T02:05:55.619Z,63.70
2019-04-20T02:06:56.417Z,64.37
2019-04-20T02:07:53.512Z,64.37
2019-04-20T02:08:58.351Z,64.47
2019-04-20T02:09:56.816Z,64.56
2019-04-20T02:10:54.381Z,65.42
2019-04-20T02:11:53.386Z,64.28
2019-04-20T02:12:57.359Z,64.47
2019-04-20T02:13:56.614Z,65.04
2019-04-20T02:14:57.032Z,65.14
2019-04-20T02:15:56.009Z,65.30
2019-04-20T02:17:01.474Z,65.77
2019-04-20T02:18:04.777Z,65.58
2019-04-20T02:19:10.923Z,65.77
2019-04-20T02:20:14.351Z,66.16
2019-04-20T02:21:09.669Z,66.54
2019-04-20T02:22:03.865Z,66.73
2019-04-20T02:23:06.793Z,66.25
2019-04-20T02:23:57.255Z,67.30
2019-04-20T02:24:51.022Z,67.69
2019-04-20T02:25:50.737Z,66.92
2019-04-20T02:26:51.969Z,66.92
2019-04-20T02:27:57.832Z,67.21
2019-04-20T02:29:18.945Z,67.21
2019-04-20T02:30:21.704Z,67.21
2019-04-20T02:32:12.041Z,66.73
2019-04-20T02:34:25.697Z,67.30
2019-04-20T02:35:30.128Z,67.30
2019-04-20T02:37:27.730Z,67.49
2019-04-20T02:40:35.842Z,67.40
2019-04-20T02:41:29.914Z,67.49
2019-04-20T02:42:26.530Z,67.02
2019-04-20T02:43:28.465Z,67.21
2019-04-20T02:44:33.906Z,67.59
2019-04-20T02:45:36.637Z,67.21
2019-04-20T02:46:24.917Z,67.30
2019-04-20T02:47:31.734Z,66.89
2019-04-20T02:48:25.293Z,67.49
2019-04-20T02:51:23.241Z,67.27
2019-04-20T02:52:32.293Z,67.08
2019-04-20T02:54:19.048Z,67.55
2019-04-20T02:55:26.820Z,67.27
2019-04-20T02:58:22.896Z,67.55
2019-04-20T03:00:22.065Z,67.55
2019-04-20T03:01:13.235Z,68.13
2019-04-20T03:02:13.030Z,67.36
2019-04-20T03:03:03.475Z,67.84
2019-04-20T03:03:57.662Z,67.27
2019-04-20T03:05:08.152Z,66.89
2019-04-20T03:06:06.371Z,67.75
2019-04-20T03:07:09.009Z,67.46
2019-04-20T03:08:16.413Z,68.04
2019-04-20T03:09:16.327Z,66.99
2019-04-20T03:10:11.263Z,67.40
2019-04-20T03:11:23.462Z,66.60
2019-04-20T03:12:21.193Z,67.27
2019-04-20T03:13:15.641Z,66.70
2019-04-20T03:14:09.277Z,67.18
2019-04-20T03:15:12.936Z,66.99
2019-04-20T03:16:12.375Z,67.27
2019-04-20T03:18:17.966Z,67.94
2019-04-20T03:19:09.373Z,67.46
2019-04-20T03:21:12.770Z,67.55
2019-04-20T03:22:14.853Z,67.18
2019-04-20T03:23:26.118Z,67.75
2019-04-20T03:24:21.518Z,68.61
2019-04-20T03:25:11.390Z,67.27
2019-04-20T03:26:11.940Z,67.55
2019-04-20T03:27:09.867Z,67.55
2019-04-20T03:28:14.074Z,68.13
2019-04-20T03:29:06.691Z,68.32
2019-04-20T03:30:39.785Z,68.23
2019-04-20T03:34:40.965Z,67.75
2019-04-20T03:35:20.571Z,67.36
2019-04-20T03:36:25.200Z,67.55
2019-04-20T03:37:24.508Z,66.99
2019-04-20T03:38:15.660Z,68.70
2019-04-20T03:39:11.548Z,67.46
2019-04-20T03:40:08.298Z,66.99
2019-04-20T03:41:05.127Z,66.79
2019-04-20T03:41:56.661Z,67.55
2019-04-20T03:42:54.805Z,67.94
2019-04-20T03:44:01.033Z,67.55
2019-04-20T03:45:59.588Z,68.61
2019-04-20T03:46:57.316Z,68.70
2019-04-20T03:48:03.010Z,67.94
2019-04-20T03:49:09.522Z,68.41
2019-04-20T03:50:22.430Z,68.51
2019-04-20T03:51:17.048Z,68.32
2019-04-20T03:52:12.232Z,68.70
2019-04-20T03:53:19.259Z,68.13
2019-04-20T03:54:08.553Z,68.70
2019-04-20T03:55:12.830Z,69.27
2019-04-20T03:56:18.394Z,68.23
2019-04-20T03:57:23.596Z,68.96
2019-04-20T03:58:15.299Z,69.24
2019-04-20T03:59:08.798Z,69.82
2019-04-20T04:00:09.987Z,68.96
2019-04-20T04:01:12.556Z,69.15
2019-04-20T04:02:41.232Z,68.57
2019-04-20T04:03:22.818Z,69.05
2019-04-20T04:04:16.899Z,69.53
2019-04-20T04:05:12.557Z,69.24
2019-04-20T04:06:07.720Z,69.72
2019-04-20T04:06:56.636Z,69.15
2019-04-20T04:08:06.201Z,69.53
2019-04-20T04:09:07.306Z,69.72
2019-04-20T04:10:09.731Z,69.72
2019-04-20T04:11:12.371Z,69.43
2019-04-20T04:12:06.620Z,70.01
2019-04-20T04:12:54.614Z,69.62
2019-04-20T04:13:54.642Z,68.86
2019-04-20T04:14:55.678Z,68.76
2019-04-20T04:15:59.336Z,70.01
2019-04-20T04:16:57.021Z,70.39
2019-04-20T04:19:07.358Z,70.39
2019-04-20T04:20:01.065Z,70.87
2019-04-20T04:21:01.425Z,70.48
2019-04-20T04:22:08.906Z,70.01
2019-04-20T04:23:10.511Z,70.10
2019-04-20T04:24:08.063Z,71.06
2019-04-20T04:25:01.742Z,70.29
2019-04-20T04:26:13.048Z,70.10
2019-04-20T04:27:08.178Z,69.91
2019-04-20T04:28:10.586Z,70.29
2019-04-20T04:30:11.954Z,70.67
2019-04-20T04:31:16.426Z,70.20
2019-04-20T04:32:23.523Z,71.25
2019-04-20T04:33:40.237Z,71.53
2019-04-20T04:34:12.596Z,70.83
2019-04-20T04:35:09.268Z,70.96
2019-04-20T04:36:10.442Z,70.07
2019-04-20T04:37:17.637Z,70.54
2019-04-20T04:38:15.258Z,70.36
2019-04-20T04:39:19.234Z,70.58
2019-04-20T04:40:22.353Z,69.91
2019-04-20T04:41:20.259Z,69.43
2019-04-20T04:42:16.673Z,70.29
2019-04-20T04:43:18.714Z,69.91
2019-04-20T04:44:08.667Z,69.53
2019-04-20T04:45:00.780Z,69.82
2019-04-20T04:45:53.303Z,69.15
2019-04-20T04:46:58.497Z,69.91
2019-04-20T04:47:53.655Z,69.53
2019-04-20T04:48:54.789Z,68.76
2019-04-20T04:49:59.947Z,69.05
2019-04-20T04:50:59.132Z,69.15
2019-04-20T04:52:02.279Z,68.57
2019-04-20T04:53:02.512Z,69.15
2019-04-20T04:53:59.884Z,68.96
2019-04-20T04:55:05.249Z,69.82
2019-04-20T04:55:58.537Z,70.01
2019-04-20T04:56:52.926Z,69.53
2019-04-20T04:57:53.792Z,69.68
2019-04-20T04:58:53.834Z,69.43
2019-04-20T04:59:53.537Z,69.49
2019-04-20T05:01:03.922Z,70.39
2019-04-20T05:01:55.453Z,70.29
2019-04-20T05:02:59.041Z,69.97
2019-04-20T05:04:24.779Z,70.45
2019-04-20T05:05:17.619Z,70.10
2019-04-20T05:06:16.740Z,70.29
2019-04-20T05:07:07.718Z,70.20
2019-04-20T05:08:02.917Z,70.48
2019-04-20T05:08:58.470Z,69.53
2019-04-20T05:09:53.142Z,68.96
2019-04-20T05:10:54.156Z,69.15
2019-04-20T05:11:59.966Z,69.34
2019-04-20T05:12:54.698Z,70.29
2019-04-20T05:13:58.581Z,69.82
2019-04-20T05:15:03.621Z,70.10
2019-04-20T05:16:07.542Z,69.72
2019-04-20T05:17:07.738Z,69.62
2019-04-20T05:18:11.852Z,68.86
2019-04-20T05:19:19.609Z,69.53
2019-04-20T05:20:14.685Z,68.38
2019-04-20T05:21:15.409Z,69.72
2019-04-20T05:22:16.329Z,70.39
2019-04-20T05:23:11.471Z,69.15
2019-04-20T05:24:07.614Z,68.38
2019-04-20T05:25:12.951Z,68.57
2019-04-20T05:26:13.791Z,68.57
2019-04-20T05:27:14.678Z,68.48
2019-04-20T05:28:09.598Z,68.76
2019-04-20T05:29:53.280Z,68.86
2019-04-20T05:30:59.193Z,68.67
2019-04-20T05:32:00.833Z,69.72
2019-04-20T05:33:01.657Z,69.05
2019-04-20T05:34:14.408Z,69.62
2019-04-20T05:35:19.675Z,69.43
2019-04-20T05:36:14.727Z,68.57
2019-04-20T05:37:24.010Z,67.71
2019-04-20T05:38:25.640Z,70.39
2019-04-20T05:39:21.309Z,68.38
2019-04-20T05:40:17.261Z,68.38
2019-04-20T05:41:11.434Z,68.99
2019-04-20T05:42:20.280Z,67.36
2019-04-20T05:43:13.126Z,68.41
2019-04-20T05:44:11.260Z,69.37
2019-04-20T05:45:11.550Z,68.61
2019-04-20T05:46:18.182Z,68.04
2019-04-20T05:47:11.226Z,68.61
2019-04-20T05:48:09.274Z,68.61
2019-04-20T05:49:20.700Z,68.23
2019-04-20T05:50:05.063Z,67.18
2019-04-20T05:51:21.596Z,67.75
2019-04-20T05:52:26.294Z,67.94
2019-04-20T05:53:14.451Z,66.89
2019-04-20T05:54:13.515Z,66.79
2019-04-20T05:55:14.698Z,67.08
2019-04-20T05:56:09.131Z,67.27
2019-04-20T05:57:23.652Z,66.50
2019-04-20T05:58:17.632Z,66.79
2019-04-20T05:59:13.895Z,65.17
2019-04-20T06:00:16.014Z,66.63
2019-04-20T06:01:13.516Z,65.58
2019-04-20T06:02:19.923Z,65.68
2019-04-20T06:03:12.770Z,66.35
2019-04-20T06:04:10.653Z,64.91
2019-04-20T06:05:17.765Z,66.54
2019-04-20T06:06:16.817Z,64.82
2019-04-20T06:07:18.337Z,65.11
2019-04-20T06:08:24.423Z,64.82
2019-04-20T06:09:20.991Z,65.20
2019-04-20T06:10:22.205Z,65.68
2019-04-20T06:11:19.263Z,64.53
2019-04-20T06:12:20.998Z,64.82
2019-04-20T06:13:11.416Z,63.76
2019-04-20T06:14:02.374Z,63.48
2019-04-20T06:15:10.670Z,63.57
2019-04-20T06:16:13.841Z,64.34
2019-04-20T06:17:15.909Z,63.57
2019-04-20T06:18:13.259Z,63.57
2019-04-20T06:19:24.413Z,63.99
2019-04-20T06:20:16.882Z,63.10
2019-04-20T06:21:29.692Z,62.37
2019-04-20T06:22:20.438Z,62.74
2019-04-20T06:23:19.561Z,62.37
2019-04-20T06:24:18.384Z,61.98
2019-04-20T06:25:30.819Z,61.22
2019-04-20T06:26:30.141Z,60.93
2019-04-20T06:28:14.905Z,60.83
2019-04-20T06:29:10.190Z,60.45
2019-04-20T06:30:12.265Z,59.97
2019-04-20T06:31:22.775Z,60.35
2019-04-20T06:32:23.335Z,60.16
2019-04-20T06:33:24.427Z,59.59
2019-04-20T06:34:25.829Z,59.49
2019-04-20T06:35:29.173Z,59.59
2019-04-20T06:36:25.268Z,59.62
2019-04-20T06:37:10.178Z,59.91
2019-04-20T06:38:38.662Z,59.33
2019-04-20T06:39:22.537Z,58.47
2019-04-20T06:40:35.114Z,58.76
2019-04-20T06:41:21.117Z,58.86
2019-04-20T06:42:14.768Z,58.56
2019-04-20T06:43:11.158Z,58.59
2019-04-20T06:44:26.436Z,57.45
2019-04-20T06:45:20.276Z,57.45
2019-04-20T06:46:15.207Z,58.12
2019-04-20T06:47:16.220Z,58.12
2019-04-20T06:48:26.879Z,57.64
2019-04-20T06:49:25.656Z,57.06
2019-04-20T06:50:14.199Z,56.97
2019-04-20T06:51:20.362Z,58.02
2019-04-20T06:52:23.141Z,57.67
2019-04-20T06:53:23.897Z,56.77
2019-04-20T06:54:08.153Z,57.28
2019-04-20T06:55:09.783Z,56.32
2019-04-20T06:56:18.111Z,56.32
2019-04-20T06:57:18.451Z,56.23
2019-04-20T06:58:31.885Z,55.65
2019-04-20T06:59:20.015Z,55.56
2019-04-20T07:00:15.584Z,55.94
2019-04-20T07:01:15.677Z,55.65
2019-04-20T07:02:21.888Z,55.65
2019-04-20T07:03:32.875Z,54.79
2019-04-20T07:04:37.665Z,54.03
2019-04-20T07:05:21.119Z,53.77
2019-04-20T07:06:29.395Z,53.67
2019-04-20T07:07:18.394Z,53.86
2019-04-20T07:08:37.386Z,54.24
2019-04-20T07:09:23.448Z,53.67
2019-04-20T07:10:18.297Z,53.67
2019-04-20T07:11:18.331Z,53.38
2019-04-20T07:12:12.627Z,52.71
2019-04-20T07:13:07.754Z,53.67
2019-04-20T07:14:04.080Z,53.60
2019-04-20T07:15:15.071Z,53.28
2019-04-20T07:16:18.282Z,52.93
2019-04-20T07:17:26.704Z,52.74
2019-04-20T07:18:17.249Z,53.03
2019-04-20T07:19:15.399Z,52.74
2019-04-20T07:20:10.306Z,53.22
2019-04-20T07:21:35.640Z,52.45
2019-04-20T07:22:25.331Z,51.97
2019-04-20T07:23:24.276Z,51.30
2019-04-20T07:24:17.318Z,50.82
2019-04-20T07:25:16.077Z,51.42
2019-04-20T07:26:23.910Z,51.32
2019-04-20T07:27:13.616Z,50.27
2019-04-20T07:28:24.125Z,49.88
2019-04-20T07:29:22.424Z,49.21
2019-04-20T07:30:12.104Z,49.60
2019-04-20T07:31:13.162Z,49.60
2019-04-20T07:32:11.707Z,48.83
2019-04-20T07:33:18.582Z,48.74
2019-04-20T07:34:18.364Z,48.74
2019-04-20T07:35:14.419Z,49.41
2019-04-20T07:36:19.885Z,49.31
2019-04-20T07:37:41.957Z,49.69
2019-04-20T07:38:38.135Z,48.85
2019-04-20T07:39:14.582Z,49.52
2019-04-20T07:40:15.132Z,49.62
2019-04-20T07:41:23.584Z,49.15
2019-04-20T07:42:19.158Z,48.76
2019-04-20T07:43:17.418Z,49.15
2019-04-20T07:44:18.783Z,48.66
2019-04-20T07:45:24.065Z,48.38
2019-04-20T07:46:23.859Z,48.28
2019-04-20T07:47:28.294Z,48.76
2019-04-20T07:48:15.378Z,48.66
2019-04-20T07:49:19.247Z,48.76
2019-04-20T07:50:07.657Z,48.79
2019-04-20T07:51:04.819Z,48.49
2019-04-20T07:51:55.549Z,48.88
2019-04-20T07:53:12.231Z,47.92
2019-04-20T07:54:24.585Z,47.34
2019-04-20T07:56:20.784Z,47.44
2019-04-20T07:57:14.753Z,47.44
2019-04-20T07:58:09.902Z,47.92
2019-04-20T07:59:09.560Z,47.92
2019-04-20T08:00:16.317Z,47.63
2019-04-20T08:01:24.221Z,47.34
2019-04-20T08:02:24.962Z,46.58
2019-04-20T08:03:24.699Z,46.58
2019-04-20T08:04:13.004Z,46.67
2019-04-20T08:05:10.999Z,46.48
2019-04-20T08:06:06.918Z,46.58
2019-04-20T08:07:00.514Z,46.19
2019-04-20T08:08:16.900Z,46.41
2019-04-20T08:09:07.183Z,46.59
2019-04-20T08:10:02.478Z,46.59
2019-04-20T08:11:13.826Z,46.59
2019-04-20T08:12:19.482Z,46.59
2019-04-20T08:13:29.076Z,46.21
2019-04-20T08:16:27.732Z,46.59
2019-04-20T08:17:26.826Z,46.59
2019-04-20T08:18:21.578Z,46.41
2019-04-20T08:19:17.364Z,46.33
2019-04-20T08:20:15.969Z,46.12
2019-04-20T08:21:20.982Z,45.76
2019-04-20T08:22:19.800Z,46.23
2019-04-20T08:23:17.056Z,47.00
2019-04-20T08:24:13.136Z,47.68
2019-04-20T08:25:12.543Z,47.49
2019-04-20T08:26:07.867Z,47.39
2019-04-20T08:27:00.554Z,47.68
2019-04-20T08:27:56.985Z,47.20
2019-04-20T08:29:01.590Z,46.81
2019-04-20T08:30:09.228Z,46.72
2019-04-20T08:31:09.377Z,47.20
2019-04-20T08:32:17.966Z,47.00
2019-04-20T08:33:13.378Z,46.72
2019-04-20T08:34:19.920Z,47.03
2019-04-20T08:35:22.893Z,47.70
2019-04-20T08:36:17.052Z,47.03
2019-04-20T08:37:12.897Z,46.45
2019-04-20T08:38:51.607Z,46.45
2019-04-20T08:39:28.174Z,45.97
2019-04-20T08:40:22.330Z,45.87
2019-04-20T08:41:15.278Z,44.82
2019-04-20T08:42:16.227Z,45.10
2019-04-20T08:43:29.894Z,44.91
2019-04-20T08:44:35.517Z,45.59
2019-04-20T08:45:18.069Z,45.78
2019-04-20T08:46:15.611Z,45.87
2019-04-20T08:47:37.873Z,45.78
2019-04-20T08:49:19.418Z,45.29
2019-04-20T08:50:21.196Z,45.49
2019-04-20T08:51:13.129Z,44.91
2019-04-20T08:52:37.685Z,44.91
2019-04-20T08:53:20.238Z,45.32
2019-04-20T08:54:14.343Z,45.42
2019-04-20T08:55:16.940Z,45.22
2019-04-20T08:56:10.887Z,45.22
2019-04-20T08:56:59.953Z,44.55
2019-04-20T08:57:56.551Z,44.35
2019-04-20T08:58:57.388Z,44.45
2019-04-20T08:59:58.048Z,43.59
2019-04-20T09:01:01.625Z,43.90
2019-04-20T09:01:58.926Z,43.51
2019-04-20T09:03:05.711Z,43.23
2019-04-20T09:04:06.601Z,42.26
2019-04-20T09:05:03.201Z,42.46
2019-04-20T09:06:03.262Z,42.55
2019-04-20T09:07:07.712Z,42.26
2019-04-20T09:08:06.913Z,42.16
2019-04-20T09:09:20.715Z,42.16
2019-04-20T09:10:24.373Z,41.68
2019-04-20T09:11:14.386Z,42.16
2019-04-20T09:12:16.748Z,42.26
2019-04-20T09:13:08.280Z,42.09
2019-04-20T09:14:00.140Z,41.80
2019-04-20T09:14:57.371Z,41.71
2019-04-20T09:15:57.787Z,41.71
2019-04-20T09:17:02.855Z,42.09
2019-04-20T09:18:00.885Z,41.71
2019-04-20T09:19:03.360Z,41.80
2019-04-20T09:20:06.285Z,41.51
2019-04-20T09:21:05.717Z,41.05
2019-04-20T09:22:03.214Z,41.05
2019-04-20T09:23:12.924Z,40.64
2019-04-20T09:24:22.680Z,40.64
2019-04-20T09:25:40.649Z,40.36
2019-04-20T09:26:16.271Z,40.19
2019-04-20T09:27:08.757Z,40.19
2019-04-20T09:28:08.423Z,39.99
2019-04-20T09:29:11.138Z,40.28
2019-04-20T09:30:09.427Z,40.09
2019-04-20T09:31:12.286Z,39.70
2019-04-20T09:32:16.789Z,39.61
2019-04-20T09:33:14.315Z,39.70
2019-04-20T09:34:14.478Z,40.28
2019-04-20T09:35:13.744Z,40.37
2019-04-20T09:36:09.679Z,39.99
2019-04-20T09:37:21.383Z,40.37
2019-04-20T09:38:12.171Z,39.99
2019-04-20T09:39:08.568Z,40.19
2019-04-20T09:40:16.076Z,40.09
2019-04-20T09:41:25.310Z,40.20
2019-04-20T09:42:01.504Z,40.20
2019-04-20T09:42:56.960Z,39.91
2019-04-20T09:43:58.246Z,39.62
2019-04-20T09:44:59.523Z,40.11
2019-04-20T09:46:02.088Z,40.01
2019-04-20T09:46:59.916Z,39.62
2019-04-20T09:47:58.355Z,38.95
2019-04-20T09:49:02.155Z,38.85
2019-04-20T09:50:09.334Z,39.36
2019-04-20T09:51:16.940Z,40.03
2019-04-20T09:52:12.166Z,38.68
2019-04-20T09:53:17.417Z,38.58
2019-04-20T09:54:10.880Z,38.29
2019-04-20T09:55:10.788Z,38.10
2019-04-20T09:56:16.896Z,37.81
2019-04-20T09:57:09.376Z,38.20
2019-04-20T09:58:09.537Z,38.02
2019-04-20T09:59:16.609Z,38.89
2019-04-20T10:00:11.795Z,38.60
2019-04-20T10:01:11.114Z,38.89
2019-04-20T10:02:06.667Z,38.31
2019-04-20T10:02:58.256Z,38.31
2019-04-20T10:03:57.277Z,37.63
2019-04-20T10:04:57.761Z,37.71
2019-04-20T10:05:57.323Z,37.54
2019-04-20T10:07:01.099Z,37.73
2019-04-20T10:08:01.179Z,37.81
2019-04-20T10:09:00.486Z,38.02
2019-04-20T10:09:57.848Z,37.73
2019-04-20T10:10:57.407Z,37.93
2019-04-20T10:11:57.585Z,38.02
2019-04-20T10:12:58.367Z,38.02
2019-04-20T10:13:58.566Z,38.12
2019-04-20T10:15:02.583Z,38.02
2019-04-20T10:15:57.782Z,37.93
2019-04-20T10:16:58.001Z,38.21
2019-04-20T10:17:57.492Z,38.02
2019-04-20T10:18:58.751Z,38.02
2019-04-20T10:19:57.797Z,38.02
2019-04-20T10:20:57.967Z,38.21
2019-04-20T10:22:00.942Z,38.02
2019-04-20T10:22:58.471Z,38.14
2019-04-20T10:23:58.893Z,37.27
2019-04-20T10:24:58.657Z,35.92
2019-04-20T10:25:58.581Z,35.92
2019-04-20T10:26:58.760Z,35.82
2019-04-20T10:27:57.862Z,35.53
2019-04-20T10:28:57.675Z,35.53
2019-04-20T10:30:00.699Z,35.92
2019-04-20T10:30:58.932Z,35.63
2019-04-20T10:32:00.679Z,35.74
2019-04-20T10:32:57.721Z,36.13
2019-04-20T10:33:57.731Z,35.74
2019-04-20T10:34:58.926Z,35.55
2019-04-20T10:35:57.770Z,35.06
2019-04-20T10:36:57.783Z,34.29
2019-04-20T10:37:57.838Z,34.87
2019-04-20T10:38:58.257Z,35.16
2019-04-20T10:39:58.515Z,35.84
2019-04-20T10:41:08.161Z,35.26
2019-04-20T10:42:02.132Z,35.45
2019-04-20T10:42:59.840Z,34.87
2019-04-20T10:43:58.756Z,33.81
2019-04-20T10:45:00.324Z,33.52
2019-04-20T10:45:59.023Z,34.10
2019-04-20T10:46:58.783Z,32.84
2019-04-20T10:47:59.046Z,33.14
2019-04-20T10:49:03.716Z,32.75
2019-04-20T10:49:58.903Z,32.94
2019-04-20T10:50:58.938Z,33.23
2019-04-20T10:51:58.082Z,33.91
2019-04-20T10:52:59.529Z,34.00
2019-04-20T10:53:58.364Z,33.62
2019-04-20T10:54:58.641Z,33.62
2019-04-20T10:55:58.100Z,33.81
2019-04-20T10:56:59.338Z,34.00
2019-04-20T10:57:58.136Z,34.21
2019-04-20T10:58:58.120Z,33.73
2019-04-20T10:59:59.533Z,33.72
2019-04-20T11:00:58.161Z,33.91
2019-04-20T11:01:58.182Z,34.68
2019-04-20T11:02:59.608Z,34.48
2019-04-20T11:03:58.765Z,34.89
2019-04-20T11:04:58.851Z,35.28
2019-04-20T11:05:58.584Z,34.60
2019-04-20T11:06:58.640Z,34.31
2019-04-20T11:07:58.805Z,34.89
2019-04-20T11:08:58.573Z,34.79
2019-04-20T11:10:07.905Z,35.18
2019-04-20T11:11:09.061Z,35.37
2019-04-20T11:11:58.732Z,34.02
2019-04-20T11:12:59.132Z,34.60
2019-04-20T11:14:00.809Z,34.41
2019-04-20T11:14:58.726Z,34.02
2019-04-20T11:15:58.395Z,33.73
2019-04-20T11:16:58.488Z,33.92
2019-04-20T11:17:59.613Z,34.02
2019-04-20T11:18:58.436Z,33.05
2019-04-20T11:19:59.196Z,33.83
2019-04-20T11:21:59.325Z,33.83
2019-04-20T11:22:58.516Z,34.41
2019-04-20T11:23:58.515Z,34.02
2019-04-20T11:24:58.627Z,33.73
2019-04-20T11:26:58.562Z,34.21
2019-04-20T11:27:58.628Z,34.04
2019-04-20T11:28:59.948Z,34.13
2019-04-20T11:30:00.201Z,34.23
2019-04-20T11:30:58.637Z,34.52
2019-04-20T11:31:59.451Z,33.84
2019-04-20T11:33:00.153Z,34.04
2019-04-20T11:33:58.678Z,33.94
2019-04-20T11:35:02.243Z,34.79
2019-04-20T11:35:59.167Z,34.81
2019-04-20T11:36:59.228Z,34.91
2019-04-20T11:37:58.730Z,34.91
2019-04-20T11:38:58.798Z,34.54
2019-04-20T11:39:59.081Z,35.21
2019-04-20T11:41:07.387Z,35.41
2019-04-20T11:41:59.520Z,35.02
2019-04-20T11:42:59.546Z,34.05
2019-04-20T11:43:59.780Z,33.18
2019-04-20T11:44:58.847Z,33.67
2019-04-20T11:45:58.943Z,33.67
2019-04-20T11:46:58.913Z,32.99
2019-04-20T11:47:58.891Z,33.37
2019-04-20T11:48:59.472Z,33.57
2019-04-20T11:49:59.574Z,34.05
2019-04-20T11:50:58.948Z,33.57
2019-04-20T11:51:59.454Z,33.76
2019-04-20T11:52:59.323Z,32.99
2019-04-20T11:53:58.987Z,33.97
2019-04-20T11:55:00.188Z,32.52
2019-04-20T11:56:00.344Z,31.73
2019-04-20T11:56:59.437Z,32.31
2019-04-20T11:57:59.045Z,32.99
2019-04-20T11:59:00.935Z,33.57
2019-04-20T11:59:59.422Z,33.86
2019-04-20T12:01:05.105Z,33.76
2019-04-20T12:02:03.707Z,33.57
2019-04-20T12:03:09.620Z,33.47
2019-04-20T12:04:09.286Z,33.01
2019-04-20T12:05:12.796Z,34.07
2019-04-20T12:06:02.922Z,32.81
2019-04-20T12:06:59.186Z,32.89
2019-04-20T12:07:59.195Z,32.89
2019-04-20T12:08:59.271Z,32.99
2019-04-20T12:10:09.172Z,33.01
2019-04-20T12:11:01.776Z,33.10
2019-04-20T12:12:09.277Z,33.10
2019-04-20T12:12:59.693Z,32.73
2019-04-20T12:14:00.572Z,32.81
2019-04-20T12:15:00.805Z,31.65
2019-04-20T12:15:59.499Z,33.01
2019-04-20T12:16:59.647Z,31.74
2019-04-20T12:17:59.862Z,31.07
2019-04-20T12:19:00.175Z,31.07
2019-04-20T12:19:59.965Z,31.36
2019-04-20T12:21:00.803Z,31.26
2019-04-20T12:22:00.034Z,32.52
2019-04-20T12:23:00.199Z,32.24
2019-04-20T12:24:00.371Z,31.76
2019-04-20T12:25:00.449Z,31.57
2019-04-20T12:25:59.804Z,32.82
2019-04-20T12:27:00.724Z,31.86
2019-04-20T12:28:01.890Z,31.76
2019-04-20T12:28:59.539Z,31.28
2019-04-20T12:29:59.653Z,31.18
2019-04-20T12:31:04.045Z,30.41
2019-04-20T12:32:03.481Z,30.69
2019-04-20T12:33:01.685Z,30.02
2019-04-20T12:34:00.208Z,30.60
2019-04-20T12:35:00.245Z,31.10
2019-04-20T12:36:00.387Z,31.01
2019-04-20T12:37:00.762Z,30.81
2019-04-20T12:38:00.769Z,30.62
2019-04-20T12:39:01.155Z,30.81
2019-04-20T12:40:00.816Z,30.41
2019-04-20T12:41:03.125Z,30.69
2019-04-20T12:42:03.968Z,30.11
2019-04-20T12:43:01.251Z,30.79
2019-04-20T12:43:59.779Z,30.42
2019-04-20T12:44:59.797Z,29.74
2019-04-20T12:46:00.039Z,30.52
2019-04-20T12:46:59.827Z,28.96
2019-04-20T12:47:59.844Z,29.73
2019-04-20T12:48:59.864Z,29.92
2019-04-20T12:50:01.289Z,31.28
2019-04-20T12:50:59.896Z,31.86
2019-04-20T12:52:03.458Z,30.62
2019-04-20T12:52:59.929Z,30.71
2019-04-20T12:54:00.544Z,30.41
2019-04-20T12:55:02.775Z,30.69
2019-04-20T12:55:59.985Z,31.59
2019-04-20T12:57:00.497Z,30.81
2019-04-20T12:58:00.642Z,30.42
2019-04-20T12:59:00.043Z,30.42
2019-04-20T13:00:01.490Z,30.13
2019-04-20T13:01:00.551Z,30.71
2019-04-20T13:02:00.074Z,30.04
2019-04-20T13:03:01.178Z,29.94
2019-04-20T13:04:02.885Z,29.74
2019-04-20T13:05:01.589Z,30.71
2019-04-20T13:06:01.696Z,30.34
2019-04-20T13:07:00.159Z,31.02
2019-04-20T13:08:02.361Z,30.54
2019-04-20T13:09:02.155Z,29.95
2019-04-20T13:10:02.152Z,29.37
2019-04-20T13:11:00.465Z,30.42
2019-04-20T13:12:05.288Z,29.74
2019-04-20T13:13:00.507Z,29.74
2019-04-20T13:14:02.107Z,29.36
2019-04-20T13:15:00.362Z,30.42
2019-04-20T13:16:00.562Z,30.52
2019-04-20T13:17:00.321Z,30.44
2019-04-20T13:18:01.223Z,29.76
2019-04-20T13:19:01.505Z,30.34
2019-04-20T13:20:00.370Z,29.66
2019-04-20T13:21:01.530Z,29.57
2019-04-20T13:22:01.104Z,29.27
2019-04-20T13:23:02.701Z,29.17
2019-04-20T13:24:00.900Z,29.37
2019-04-20T13:25:01.092Z,29.16